Araon — DSQL7 — position and weather

sailwx.info

Track history (hours):
 
Tides and Currents Weather Stations Pressure Air Temp Water Temp Dewpoint Dewpoint Depression Visibility Wind Speed Wind Dir Waves Ship Positions

Oceanographic research ship Araon (Korea)

Ship's website: http://www.kopri.re.kr/index.jsp

Last reported at 2017-Jul-22 13:08 UTC. Time now 2017-Oct-20 03:43 UTC.
Position N 34°22' E 128°33'.
Warning: this ship's position is months out of date.

Length 111 m; draft 7.4 m.

Type: Other ship. MMSI: 441619000.

Date/timePositionNaut miles runAvg speedWind from/ knotsBaromVisibWave heightAir tempDewpointWater temp
2017-Jul-22 13:08N 34°22' E 128°33'212.3
2017-Jul-22 12:57N 34°21' E 128°30'2511.4
2017-Jul-22 10:42N 34°12' E 128°02'211.2
2017-Jul-22 10:30N 34°10' E 127°60'4112.4
2017-Jul-22 07:11N 33°55' E 127°14'314.4
2017-Jul-22 07:00N 33°55' E 127°11'714.4
2017-Jul-22 06:30N 33°53' E 127°02'714.8
2017-Jul-22 06:00N 33°52' E 126°53'815.2
2017-Jul-22 05:30N 33°50' E 126°45'815.2
2017-Jul-22 05:00N 33°49' E 126°36'815.0
2017-Jul-22 04:30N 33°50' E 126°27'7910.7
2017-Jul-21 21:07N 34°58' E 125°39'6112.3
2017-Jul-21 16:09N 35°59' E 125°48'110.9
2017-Jul-21 16:00N 36°01' E 125°48'  
Track history (hours):
 
Tides and Currents Weather Stations Pressure Air Temp Water Temp Dewpoint Dewpoint Depression Visibility Wind Speed Wind Dir Waves Ship Positions

Oceanographic research ship Araon (Korea)

Ship's website: http://www.kopri.re.kr/index.jsp

Last reported at 2017-Jul-22 13:08 UTC. Time now 2017-Oct-20 03:43 UTC.
Position N 34°22' E 128°33'.
Warning: this ship's position is months out of date.

Length 111 m; draft 7.4 m.

Type: Other ship. MMSI: 441619000.

Date/timePositionNaut miles runAvg speedWind from/ knotsBaromVisibWave heightAir tempDewpointWater temp
2017-Jul-22 13:08N 34°22' E 128°33'212.3
2017-Jul-22 12:57N 34°21' E 128°30'2511.4
2017-Jul-22 10:42N 34°12' E 128°02'211.2
2017-Jul-22 10:30N 34°10' E 127°60'4112.4
2017-Jul-22 07:11N 33°55' E 127°14'314.4
2017-Jul-22 07:00N 33°55' E 127°11'714.4
2017-Jul-22 06:30N 33°53' E 127°02'714.8
2017-Jul-22 06:00N 33°52' E 126°53'815.2
2017-Jul-22 05:30N 33°50' E 126°45'815.2
2017-Jul-22 05:00N 33°49' E 126°36'815.0
2017-Jul-22 04:30N 33°50' E 126°27'7910.7
2017-Jul-21 21:07N 34°58' E 125°39'6112.3
2017-Jul-21 16:09N 35°59' E 125°48'110.9
2017-Jul-21 16:00N 36°01' E 125°48'  

Dump ship's entire track history